Costa Victoria — IBLC — position and weather

sailwx.info

Track history (hours):
 
Tides and Currents Weather Stations Pressure Air Temp Water Temp Dewpoint Dewpoint Depression Visibility Wind Speed Wind Dir Waves Ship Positions

Costa Victoria

Last reported at 2017-Jul-20 18:49 UTC. Time now 2017-Jul-21 02:30 UTC.
Position N 35°03' E 122°51'.

Length 253 m; draft 8 m.

Type: Ship. MMSI: 247109000.

Date/timePositionNaut miles runAvg speedWind from/ knotsBaromVisibWave heightAir tempDewpointWater temp
2017-Jul-20 18:49N 35°03' E 122°51'814.8
2017-Jul-20 18:17N 35°06' E 122°42'514.5
2017-Jul-20 17:58N 35°09' E 122°38'814.3
2017-Jul-20 17:25N 35°14' E 122°29'614.5
2017-Jul-20 16:58N 35°17' E 122°22'614.1
2017-Jul-20 16:31N 35°19' E 122°15'714.1
2017-Jul-20 16:00N 35°23' E 122°07'713.8
2017-Jul-20 15:30N 35°26' E 122°00'  
2017-Jul-16 21:27N 34°31' E 123°11'714.0
2017-Jul-16 20:56N 34°35' E 123°04'714.0
2017-Jul-16 20:28N 34°39' E 122°58'813.7
2017-Jul-16 19:51N 34°41' E 122°48'513.3
2017-Jul-16 19:30N 34°43' E 122°42'  
2017-Jul-11 19:26N 35°55' E 120°58'915.4
2017-Jul-11 18:53N 35°50' E 121°07'13614.9
2017-Jul-11 09:48N 34°44' E 123°32'  
Track history (hours):
 
Tides and Currents Weather Stations Pressure Air Temp Water Temp Dewpoint Dewpoint Depression Visibility Wind Speed Wind Dir Waves Ship Positions

Costa Victoria

Last reported at 2017-Jul-20 18:49 UTC. Time now 2017-Jul-21 02:30 UTC.
Position N 35°03' E 122°51'.

Length 253 m; draft 8 m.

Type: Ship. MMSI: 247109000.

Date/timePositionNaut miles runAvg speedWind from/ knotsBaromVisibWave heightAir tempDewpointWater temp
2017-Jul-20 18:49N 35°03' E 122°51'814.8
2017-Jul-20 18:17N 35°06' E 122°42'514.5
2017-Jul-20 17:58N 35°09' E 122°38'814.3
2017-Jul-20 17:25N 35°14' E 122°29'614.5
2017-Jul-20 16:58N 35°17' E 122°22'614.1
2017-Jul-20 16:31N 35°19' E 122°15'714.1
2017-Jul-20 16:00N 35°23' E 122°07'713.8
2017-Jul-20 15:30N 35°26' E 122°00'  
2017-Jul-16 21:27N 34°31' E 123°11'714.0
2017-Jul-16 20:56N 34°35' E 123°04'714.0
2017-Jul-16 20:28N 34°39' E 122°58'813.7
2017-Jul-16 19:51N 34°41' E 122°48'513.3
2017-Jul-16 19:30N 34°43' E 122°42'  
2017-Jul-11 19:26N 35°55' E 120°58'915.4
2017-Jul-11 18:53N 35°50' E 121°07'13614.9
2017-Jul-11 09:48N 34°44' E 123°32'  

Dump ship's entire track history